CA-0277 weather

CLOSED Paulson Airport
Manitoba, Canada

Public forecast

Using degrees Celsius for public forecast. Weather courtesy of forecast.io.

METAR (pilot weather report)

Closest report is Dauphin Barker Airport, 7.3 nm (13.4 km) WSW. Retrieved 2019/09/23 16:00 UTC (28 minutes ago):

CYDN 231600Z AUTO 21007KT 9SM CLR 23/10 A2968 RMK SLP055 DENSITY ALT 2300FT

TAF (pilot weather forecast)

Closest forecast is Dauphin Barker Airport, 7.3 nm (13.4 km) WSW. Retrieved 2019/09/23 12:42 UTC (4 hours ago):

TAF CYDN 231138Z 2312/2324 25006KT P6SM SKC BECMG 2316/2318 23012KT FM232300 27012G22KT P6SM FEW070 RMK FCST BASED ON AUTO OBS. NXT FCST BY 231800Z